Aviation Digital Data Service (ADDS)

Output produced by METARs form (1837 UTC 18 June 2019)
found at http://www.aviationweather.gov/metar/data/
 
KBHK 181751Z AUTO 06003KT 10SM CLR 22/12 A2998 RMK AO2 SLP137 T02220117 10222 20089 56013
K6S0 181820Z AUTO 28019KT 10SM CLR 22/09 A3001 RMK A01
KBIL 181753Z 22010KT 10SM FEW060 FEW095 BKN250 26/11 A2996 RMK AO2 SLP112 CB DSNT N TCU DSNT E-W T02560106 10256 20133 58015
KBIL 181736Z 1818/1918 22011KT P6SM FEW060 FEW100 BKN250 
     FM181900 32009KT P6SM VCTS SCT060CB BKN150 
     FM190400 25008KT P6SM VCSH FEW090 BKN120 
     FM190600 24008KT P6SM BKN100 
     FM191200 24009KT P6SM SCT100
       
KBZN 181756Z VRB04KT 10SM CLR 22/09 A3004 RMK AO2 SLP140 T02220089 10222 20067 58013
KBZN 181728Z 1818/1924 VRB05KT P6SM VCTS SCT060CB BKN090 
     FM190300 23005KT P6SM SCT250 
     FM192000 28013G21KT P6SM SCT050 BKN060 
     PROB30 1920/1924 4SM -TSRA BKN050CB
       
KBTM 181753Z AUTO VRB04KT 10SM CLR 19/07 A3010 RMK AO2 SLP152 T01890067 10194 20050 56010
KBTM 181720Z 1818/1918 VRB06KT P6SM BKN150 
     FM182100 30012G22KT P6SM BKN100 
     FM190500 32007KT P6SM SKC
       
KDLN 181753Z AUTO 00000KT 10SM CLR 20/08 A3006 RMK AO2 SLP141 T02000078 10206 20067 58016
KEKS 181815Z AUTO 00000KT 10SM CLR 20/06 A3011 RMK AO2
KEKS 181728Z 1818/1918 26007KT P6SM VCTS SCT060CB SCT090 
     FM190200 31009KT P6SM FEW070 SCT090 
     FM191500 21007KT P6SM FEW050 SCT250
       
KGGW 181753Z AUTO 13015KT 10SM FEW120 24/09 A2991 RMK AO2 SLP124 T02390094 10239 20117 56018 $
KGGW 181727Z 1818/1918 13012KT P6SM BKN100 
     FM190000 18007KT P6SM -SHRA OVC090 
     TEMPO 1900/1903 4SM -SHRA OVC025 
     FM190400 12006KT P6SM BKN050
       
KGDV 181756Z AUTO VRB04KT 10SM FEW090 23/13 A2995 RMK AO2 LTG DSNT W SLP132 T02330128 10233 20111 58018
KGDV 181727Z 1818/1918 VRB05KT P6SM BKN070 
     TEMPO 1903/1907 -SHRA BKN050 
     FM191200 VRB04KT P6SM SCT050
       
KGTF 181753Z 21007KT 10SM OVC085 19/12 A2995 RMK AO2 RAE32 SLP122 P0000 60001 T01940122 10217 20122 56001
KGTF 181728Z 1818/1918 25011KT P6SM VCTS SCT050CB BKN090 
     TEMPO 1820/1824 4SM -TSRA BKN050CB 
     FM190300 25009KT P6SM FEW050 SCT090 
     PROB30 1906/1909 4SM -RA BKN050
       
K6S5 181815Z AUTO 35007KT 9SM SCT070 BKN085 22/10 A3002 RMK AO2
KHVR 181753Z AUTO 24011G19KT 10SM BKN095 25/08 A2985 RMK AO2 LTG DSNT SE SLP094 T02500083 10267 20150 56015
KHVR 181728Z 1818/1918 22011KT P6SM VCTS SCT050CB BKN090 
     TEMPO 1820/1824 4SM -TSRA BKN050CB 
     FM190300 VRB06KT P6SM SCT050 BKN090 
     PROB30 1903/1904 4SM -RA BKN050 
     FM191100 VRB05KT P6SM FEW060 SCT250
       
KHLN 181753Z 00000KT 10SM BKN100 20/11 A2999 RMK AO2 SLP147 T02000111 10200 20106 58013
KHLN 181728Z 1818/1918 28010KT P6SM VCTS SCT060CB BKN090 
     FM190000 28013G21KT P6SM FEW080 FEW090
       
KJDN 181748Z AUTO 14011KT 23/11 A2992 RMK AO1 SLP124 T02280111 10228 20100 58013
KGPI 181755Z 16013KT 10SM CLR 24/11 A2994 RMK AO2 SLP126 T02440111 10244 20111 58009
KGPI 181720Z 1818/1918 17008KT P6SM SCT100 
     FM182200 20012KT P6SM BKN100 
     FM190300 18008KT P6SM BKN100
       
KLWT 181754Z AUTO 28008KT 10SM SCT055 22/08 A2995 RMK AO2 LTG DSNT SW SLP118 T02170083 10222 20111 56009
KLWT 181728Z 1818/1918 29010KT P6SM VCTS SCT050CB BKN090 
     TEMPO 1820/1824 4SM -TSRA BKN050CB 
     FM190300 22007KT P6SM SCT050 BKN090 
     PROB30 1906/1909 4SM -RA BKN050
       
KLVM 181753Z AUTO 25010KT 10SM SCT075 23/07 A3001 RMK AO2 SLP129 T02280072 10228 20089 56013
KLVM 181736Z 1818/1918 24013G22KT P6SM VCTS SCT100CB 
     FM182100 27014KT P6SM VCTS BKN080CB 
     FM190300 26019KT P6SM VCSH FEW080 SCT110 
     FM190600 27010KT P6SM BKN100
       
KM75 181815Z AUTO 08013KT 10SM FEW110 24/12 A2986 RMK A01
KMLS 181753Z AUTO 00000KT 10SM CLR 24/11 A2993 RMK AO2 SLP121 T02390111 10244 20106 58017
KMLS 181736Z 1818/1918 VRB05KT P6SM VCTS SCT080CB 
     FM182300 15008KT P6SM VCTS BKN050CB BKN100 
     FM190600 27007KT P6SM FEW070 BKN150 
     FM191200 29005KT P6SM SCT100
       
KMSO 181753Z 19005KT 10SM FEW075 FEW090 23/11 A3001 RMK AO2 SLP146 T02280106 10228 20117 58009
KMSO 181720Z 1818/1918 30008KT P6SM SCT100 
     FM182200 31015G25KT P6SM BKN100 
     FM190300 32009KT P6SM SCT100
       
KSDY 181756Z AUTO 13008G15KT 10SM CLR 22/11 A2997 RMK AO2 SLP541 T02220106 10228 20083 58017
KSDY 181727Z 1818/1918 12007KT P6SM SCT150 
     FM182300 VRB06KT P6SM BKN100 
     FM190900 VRB05KT P6SM -SHRA BKN080 
     FM191100 VRB06KT P6SM -SHRA BKN035 
     FM191600 15007KT P6SM BKN025
       
KWYS 181835Z AUTO 27009KT 230V300 10SM BKN055 BKN075 BKN090 17/04 A3013 RMK AO2
KOLF 181753Z AUTO 12008G15KT 080V150 10SM CLR 24/09 A2994 RMK AO2 SLP136 T02390094 10239 20100 58018
KOLF 181727Z 1818/1918 13011KT P6SM SCT100 
     TEMPO 1900/1903 4SM -SHRA OVC025 
     FM191100 VRB04KT P6SM BKN030 
     FM191300 VRB05KT P6SM SCT050